sensor_id;sensor_type;location;lat;lon;timestamp;P1;durP1;ratioP1;P2;durP2;ratioP2
8159;SDS011;27404;52.398;9.646;2023-04-25T00:01:17;12.97;;;4.37;;
8159;SDS011;27404;52.398;9.646;2023-04-25T00:03:43;14.17;;;4.20;;
8159;SDS011;27404;52.398;9.646;2023-04-25T00:06:09;13.27;;;4.80;;
8159;SDS011;27404;52.398;9.646;2023-04-25T00:08:35;9.10;;;4.30;;
8159;SDS011;27404;52.398;9.646;2023-04-25T00:11:00;9.20;;;4.07;;
8159;SDS011;27404;52.398;9.646;2023-04-25T00:13:26;11.33;;;4.33;;
8159;SDS011;27404;52.398;9.646;2023-04-25T00:15:51;13.73;;;4.73;;
8159;SDS011;27404;52.398;9.646;2023-04-25T00:18:18;11.30;;;4.53;;
8159;SDS011;27404;52.398;9.646;2023-04-25T00:20:45;10.83;;;4.13;;
8159;SDS011;27404;52.398;9.646;2023-04-25T00:23:14;17.27;;;4.90;;
8159;SDS011;27404;52.398;9.646;2023-04-25T00:25:46;9.50;;;4.40;;
8159;SDS011;27404;52.398;9.646;2023-04-25T00:28:13;7.57;;;4.17;;
8159;SDS011;27404;52.398;9.646;2023-04-25T00:30:39;10.37;;;4.13;;
8159;SDS011;27404;52.398;9.646;2023-04-25T00:33:05;12.87;;;4.23;;
8159;SDS011;27404;52.398;9.646;2023-04-25T00:35:31;11.47;;;4.50;;
8159;SDS011;27404;52.398;9.646;2023-04-25T00:37:57;13.10;;;4.80;;
8159;SDS011;27404;52.398;9.646;2023-04-25T00:40:23;7.93;;;4.43;;
8159;SDS011;27404;52.398;9.646;2023-04-25T00:42:49;13.33;;;4.87;;
8159;SDS011;27404;52.398;9.646;2023-04-25T00:45:16;13.20;;;4.47;;
8159;SDS011;27404;52.398;9.646;2023-04-25T00:47:42;14.03;;;4.83;;
8159;SDS011;27404;52.398;9.646;2023-04-25T00:50:08;11.43;;;4.87;;
8159;SDS011;27404;52.398;9.646;2023-04-25T00:52:34;11.13;;;4.13;;
8159;SDS011;27404;52.398;9.646;2023-04-25T00:55:02;8.40;;;3.80;;
8159;SDS011;27404;52.398;9.646;2023-04-25T00:57:28;13.53;;;4.27;;
8159;SDS011;27404;52.398;9.646;2023-04-25T00:59:55;16.20;;;5.13;;
8159;SDS011;27404;52.398;9.646;2023-04-25T01:02:21;10.67;;;5.00;;
8159;SDS011;27404;52.398;9.646;2023-04-25T01:04:47;14.00;;;4.83;;
8159;SDS011;27404;52.398;9.646;2023-04-25T01:07:13;11.20;;;5.00;;
8159;SDS011;27404;52.398;9.646;2023-04-25T01:09:40;15.50;;;5.10;;
8159;SDS011;27404;52.398;9.646;2023-04-25T01:12:06;10.30;;;4.57;;
8159;SDS011;27404;52.398;9.646;2023-04-25T01:14:31;12.77;;;4.50;;
8159;SDS011;27404;52.398;9.646;2023-04-25T01:16:57;11.83;;;5.17;;
8159;SDS011;27404;52.398;9.646;2023-04-25T01:19:23;9.10;;;4.63;;
8159;SDS011;27404;52.398;9.646;2023-04-25T01:21:49;10.10;;;4.67;;
8159;SDS011;27404;52.398;9.646;2023-04-25T01:24:15;13.20;;;5.33;;
8159;SDS011;27404;52.398;9.646;2023-04-25T01:26:41;10.97;;;4.40;;
8159;SDS011;27404;52.398;9.646;2023-04-25T01:29:10;11.83;;;6.17;;
8159;SDS011;27404;52.398;9.646;2023-04-25T01:31:35;11.33;;;4.70;;
8159;SDS011;27404;52.398;9.646;2023-04-25T01:34:01;9.33;;;5.20;;
8159;SDS011;27404;52.398;9.646;2023-04-25T01:36:27;12.13;;;4.73;;
8159;SDS011;27404;52.398;9.646;2023-04-25T01:38:53;15.47;;;4.90;;
8159;SDS011;27404;52.398;9.646;2023-04-25T01:41:18;12.33;;;5.00;;
8159;SDS011;27404;52.398;9.646;2023-04-25T01:43:44;15.27;;;5.20;;
8159;SDS011;27404;52.398;9.646;2023-04-25T01:46:10;9.57;;;5.10;;
8159;SDS011;27404;52.398;9.646;2023-04-25T01:48:37;13.50;;;5.70;;
8159;SDS011;27404;52.398;9.646;2023-04-25T01:51:02;13.43;;;5.33;;
8159;SDS011;27404;52.398;9.646;2023-04-25T01:53:28;13.20;;;6.10;;
8159;SDS011;27404;52.398;9.646;2023-04-25T01:55:54;11.57;;;5.97;;
8159;SDS011;27404;52.398;9.646;2023-04-25T01:58:19;13.90;;;5.77;;
8159;SDS011;27404;52.398;9.646;2023-04-25T02:00:45;12.73;;;5.83;;
8159;SDS011;27404;52.398;9.646;2023-04-25T02:03:11;15.27;;;6.30;;
8159;SDS011;27404;52.398;9.646;2023-04-25T02:05:37;12.40;;;5.93;;
8159;SDS011;27404;52.398;9.646;2023-04-25T02:08:04;14.13;;;5.57;;
8159;SDS011;27404;52.398;9.646;2023-04-25T02:10:30;12.23;;;5.07;;
8159;SDS011;27404;52.398;9.646;2023-04-25T02:12:56;13.20;;;6.10;;
8159;SDS011;27404;52.398;9.646;2023-04-25T02:15:22;16.03;;;5.87;;
8159;SDS011;27404;52.398;9.646;2023-04-25T02:17:48;14.60;;;4.60;;
8159;SDS011;27404;52.398;9.646;2023-04-25T02:20:14;10.03;;;4.43;;
8159;SDS011;27404;52.398;9.646;2023-04-25T02:22:41;16.13;;;4.20;;
8159;SDS011;27404;52.398;9.646;2023-04-25T02:25:07;9.00;;;3.57;;
8159;SDS011;27404;52.398;9.646;2023-04-25T02:27:34;11.53;;;3.73;;
8159;SDS011;27404;52.398;9.646;2023-04-25T02:29:59;8.83;;;3.50;;
8159;SDS011;27404;52.398;9.646;2023-04-25T02:32:25;12.83;;;3.63;;
8159;SDS011;27404;52.398;9.646;2023-04-25T02:34:51;14.37;;;3.53;;
8159;SDS011;27404;52.398;9.646;2023-04-25T02:37:17;10.33;;;3.50;;
8159;SDS011;27404;52.398;9.646;2023-04-25T02:39:43;12.57;;;3.67;;
8159;SDS011;27404;52.398;9.646;2023-04-25T02:42:08;13.23;;;3.83;;
8159;SDS011;27404;52.398;9.646;2023-04-25T02:44:33;14.87;;;3.97;;
8159;SDS011;27404;52.398;9.646;2023-04-25T02:46:59;20.43;;;4.13;;
8159;SDS011;27404;52.398;9.646;2023-04-25T02:49:24;19.43;;;4.07;;
8159;SDS011;27404;52.398;9.646;2023-04-25T02:51:50;14.50;;;3.47;;
8159;SDS011;27404;52.398;9.646;2023-04-25T02:54:15;13.83;;;3.90;;
8159;SDS011;27404;52.398;9.646;2023-04-25T02:56:41;14.03;;;3.43;;
8159;SDS011;27404;52.398;9.646;2023-04-25T02:59:06;9.63;;;3.43;;
8159;SDS011;27404;52.398;9.646;2023-04-25T03:01:32;16.80;;;3.90;;
8159;SDS011;27404;52.398;9.646;2023-04-25T03:03:57;14.13;;;3.00;;
8159;SDS011;27404;52.398;9.646;2023-04-25T03:06:22;10.50;;;3.83;;
8159;SDS011;27404;52.398;9.646;2023-04-25T03:08:48;13.10;;;3.40;;
8159;SDS011;27404;52.398;9.646;2023-04-25T03:11:13;12.40;;;2.87;;
8159;SDS011;27404;52.398;9.646;2023-04-25T03:13:39;17.20;;;4.10;;
8159;SDS011;27404;52.398;9.646;2023-04-25T03:16:04;18.90;;;3.70;;
8159;SDS011;27404;52.398;9.646;2023-04-25T03:18:30;15.67;;;3.83;;
8159;SDS011;27404;52.398;9.646;2023-04-25T03:20:55;12.83;;;3.40;;
8159;SDS011;27404;52.398;9.646;2023-04-25T03:23:21;16.17;;;4.83;;
8159;SDS011;27404;52.398;9.646;2023-04-25T03:25:46;10.07;;;3.17;;
8159;SDS011;27404;52.398;9.646;2023-04-25T03:28:12;15.83;;;3.77;;
8159;SDS011;27404;52.398;9.646;2023-04-25T03:30:37;17.60;;;4.03;;
8159;SDS011;27404;52.398;9.646;2023-04-25T03:33:03;15.00;;;4.23;;
8159;SDS011;27404;52.398;9.646;2023-04-25T03:35:28;17.17;;;4.20;;
8159;SDS011;27404;52.398;9.646;2023-04-25T03:37:53;16.93;;;4.53;;
8159;SDS011;27404;52.398;9.646;2023-04-25T03:40:19;12.40;;;3.93;;
8159;SDS011;27404;52.398;9.646;2023-04-25T03:42:44;13.63;;;3.70;;
8159;SDS011;27404;52.398;9.646;2023-04-25T03:45:10;11.40;;;3.67;;
8159;SDS011;27404;52.398;9.646;2023-04-25T03:47:36;19.27;;;4.10;;
8159;SDS011;27404;52.398;9.646;2023-04-25T03:50:01;23.23;;;3.67;;
8159;SDS011;27404;52.398;9.646;2023-04-25T03:52:27;19.67;;;4.17;;
8159;SDS011;27404;52.398;9.646;2023-04-25T03:54:53;10.57;;;3.77;;
8159;SDS011;27404;52.398;9.646;2023-04-25T03:57:18;17.70;;;3.87;;
8159;SDS011;27404;52.398;9.646;2023-04-25T03:59:44;19.10;;;3.67;;
8159;SDS011;27404;52.398;9.646;2023-04-25T04:02:10;15.33;;;3.70;;
8159;SDS011;27404;52.398;9.646;2023-04-25T04:04:35;17.70;;;3.90;;
8159;SDS011;27404;52.398;9.646;2023-04-25T04:07:01;18.50;;;3.57;;
8159;SDS011;27404;52.398;9.646;2023-04-25T04:09:27;16.83;;;3.60;;
8159;SDS011;27404;52.398;9.646;2023-04-25T04:11:52;18.63;;;4.17;;
8159;SDS011;27404;52.398;9.646;2023-04-25T04:14:18;16.53;;;5.37;;
8159;SDS011;27404;52.398;9.646;2023-04-25T04:16:43;17.60;;;3.80;;
8159;SDS011;27404;52.398;9.646;2023-04-25T04:19:09;17.87;;;4.10;;
8159;SDS011;27404;52.398;9.646;2023-04-25T04:21:35;18.80;;;4.03;;
8159;SDS011;27404;52.398;9.646;2023-04-25T04:24:01;18.77;;;3.73;;
8159;SDS011;27404;52.398;9.646;2023-04-25T04:26:26;19.30;;;4.17;;
8159;SDS011;27404;52.398;9.646;2023-04-25T04:28:52;18.40;;;3.97;;
8159;SDS011;27404;52.398;9.646;2023-04-25T04:31:19;17.00;;;4.10;;
8159;SDS011;27404;52.398;9.646;2023-04-25T04:33:46;14.60;;;3.73;;
8159;SDS011;27404;52.398;9.646;2023-04-25T04:36:12;21.30;;;3.77;;
8159;SDS011;27404;52.398;9.646;2023-04-25T04:38:38;22.10;;;3.80;;
8159;SDS011;27404;52.398;9.646;2023-04-25T04:41:03;15.77;;;4.27;;
8159;SDS011;27404;52.398;9.646;2023-04-25T04:43:29;16.30;;;4.37;;
8159;SDS011;27404;52.398;9.646;2023-04-25T04:45:55;20.20;;;3.70;;
8159;SDS011;27404;52.398;9.646;2023-04-25T04:48:23;15.47;;;3.83;;
8159;SDS011;27404;52.398;9.646;2023-04-25T04:50:49;12.23;;;3.10;;
8159;SDS011;27404;52.398;9.646;2023-04-25T04:53:15;14.60;;;3.93;;
8159;SDS011;27404;52.398;9.646;2023-04-25T04:55:40;18.70;;;3.60;;
8159;SDS011;27404;52.398;9.646;2023-04-25T04:58:08;18.40;;;4.20;;
8159;SDS011;27404;52.398;9.646;2023-04-25T05:00:34;17.63;;;3.97;;
8159;SDS011;27404;52.398;9.646;2023-04-25T05:02:59;16.47;;;3.90;;
8159;SDS011;27404;52.398;9.646;2023-04-25T05:05:25;20.63;;;3.90;;
8159;SDS011;27404;52.398;9.646;2023-04-25T05:07:51;21.83;;;3.50;;
8159;SDS011;27404;52.398;9.646;2023-04-25T05:10:17;15.67;;;3.90;;
8159;SDS011;27404;52.398;9.646;2023-04-25T05:12:43;15.87;;;3.63;;
8159;SDS011;27404;52.398;9.646;2023-04-25T05:15:09;20.17;;;3.63;;
8159;SDS011;27404;52.398;9.646;2023-04-25T05:17:34;15.83;;;4.10;;
8159;SDS011;27404;52.398;9.646;2023-04-25T05:20:00;21.90;;;3.67;;
8159;SDS011;27404;52.398;9.646;2023-04-25T05:22:26;17.73;;;3.73;;
8159;SDS011;27404;52.398;9.646;2023-04-25T05:24:52;19.53;;;4.10;;
8159;SDS011;27404;52.398;9.646;2023-04-25T05:27:18;18.80;;;3.90;;
8159;SDS011;27404;52.398;9.646;2023-04-25T05:29:44;13.93;;;3.27;;
8159;SDS011;27404;52.398;9.646;2023-04-25T05:32:10;11.97;;;3.40;;
8159;SDS011;27404;52.398;9.646;2023-04-25T05:34:36;20.83;;;3.63;;
8159;SDS011;27404;52.398;9.646;2023-04-25T05:37:01;14.13;;;3.60;;
8159;SDS011;27404;52.398;9.646;2023-04-25T05:39:27;17.43;;;3.87;;
8159;SDS011;27404;52.398;9.646;2023-04-25T05:41:53;14.93;;;2.80;;
8159;SDS011;27404;52.398;9.646;2023-04-25T05:44:18;15.87;;;3.20;;
8159;SDS011;27404;52.398;9.646;2023-04-25T05:46:44;15.60;;;3.17;;
8159;SDS011;27404;52.398;9.646;2023-04-25T05:49:09;18.43;;;3.40;;
8159;SDS011;27404;52.398;9.646;2023-04-25T05:51:35;18.80;;;3.20;;
8159;SDS011;27404;52.398;9.646;2023-04-25T05:54:00;18.07;;;3.47;;
8159;SDS011;27404;52.398;9.646;2023-04-25T05:56:26;16.10;;;3.17;;
8159;SDS011;27404;52.398;9.646;2023-04-25T05:58:51;16.13;;;3.20;;
8159;SDS011;27404;52.398;9.646;2023-04-25T06:01:17;8.10;;;2.87;;
8159;SDS011;27404;52.398;9.646;2023-04-25T06:03:42;13.47;;;3.23;;
8159;SDS011;27404;52.398;9.646;2023-04-25T06:06:08;18.10;;;3.60;;
8159;SDS011;27404;52.398;9.646;2023-04-25T06:08:34;12.63;;;3.23;;
8159;SDS011;27404;52.398;9.646;2023-04-25T06:11:00;11.00;;;2.90;;
8159;SDS011;27404;52.398;9.646;2023-04-25T06:13:25;12.77;;;3.00;;
8159;SDS011;27404;52.398;9.646;2023-04-25T06:15:51;18.50;;;2.93;;
8159;SDS011;27404;52.398;9.646;2023-04-25T06:18:16;9.17;;;3.07;;
8159;SDS011;27404;52.398;9.646;2023-04-25T06:20:42;15.77;;;3.23;;
8159;SDS011;27404;52.398;9.646;2023-04-25T06:23:07;10.67;;;2.77;;
8159;SDS011;27404;52.398;9.646;2023-04-25T06:25:32;15.33;;;3.77;;
8159;SDS011;27404;52.398;9.646;2023-04-25T06:27:58;15.87;;;3.20;;
8159;SDS011;27404;52.398;9.646;2023-04-25T06:30:23;10.37;;;2.47;;
8159;SDS011;27404;52.398;9.646;2023-04-25T06:32:51;12.50;;;2.93;;
8159;SDS011;27404;52.398;9.646;2023-04-25T06:35:17;14.33;;;3.63;;
8159;SDS011;27404;52.398;9.646;2023-04-25T06:37:43;12.30;;;2.50;;
8159;SDS011;27404;52.398;9.646;2023-04-25T06:40:09;15.13;;;3.00;;
8159;SDS011;27404;52.398;9.646;2023-04-25T06:42:34;9.67;;;3.30;;
8159;SDS011;27404;52.398;9.646;2023-04-25T06:45:00;9.73;;;2.70;;
8159;SDS011;27404;52.398;9.646;2023-04-25T06:47:25;9.00;;;2.40;;
8159;SDS011;27404;52.398;9.646;2023-04-25T06:49:51;13.10;;;2.80;;
8159;SDS011;27404;52.398;9.646;2023-04-25T06:52:16;11.80;;;2.63;;
8159;SDS011;27404;52.398;9.646;2023-04-25T06:54:43;12.30;;;2.50;;
8159;SDS011;27404;52.398;9.646;2023-04-25T06:57:08;9.70;;;2.57;;
8159;SDS011;27404;52.398;9.646;2023-04-25T06:59:34;16.27;;;3.13;;
8159;SDS011;27404;52.398;9.646;2023-04-25T07:01:59;10.23;;;3.00;;
8159;SDS011;27404;52.398;9.646;2023-04-25T07:04:25;15.27;;;2.70;;
8159;SDS011;27404;52.398;9.646;2023-04-25T07:06:50;12.90;;;2.87;;
8159;SDS011;27404;52.398;9.646;2023-04-25T07:09:16;13.83;;;2.30;;
8159;SDS011;27404;52.398;9.646;2023-04-25T07:11:41;13.33;;;2.73;;
8159;SDS011;27404;52.398;9.646;2023-04-25T07:14:07;11.47;;;2.60;;
8159;SDS011;27404;52.398;9.646;2023-04-25T07:16:32;17.57;;;2.97;;
8159;SDS011;27404;52.398;9.646;2023-04-25T07:18:58;14.83;;;2.87;;
8159;SDS011;27404;52.398;9.646;2023-04-25T07:21:24;11.63;;;2.67;;
8159;SDS011;27404;52.398;9.646;2023-04-25T07:23:50;14.73;;;2.50;;
8159;SDS011;27404;52.398;9.646;2023-04-25T07:26:16;10.17;;;2.40;;
8159;SDS011;27404;52.398;9.646;2023-04-25T07:28:42;14.80;;;2.90;;
8159;SDS011;27404;52.398;9.646;2023-04-25T07:31:08;14.23;;;2.93;;
8159;SDS011;27404;52.398;9.646;2023-04-25T07:33:33;14.37;;;2.93;;
8159;SDS011;27404;52.398;9.646;2023-04-25T07:35:59;12.97;;;2.33;;
8159;SDS011;27404;52.398;9.646;2023-04-25T07:38:25;10.80;;;2.30;;
8159;SDS011;27404;52.398;9.646;2023-04-25T07:40:50;11.57;;;2.57;;
8159;SDS011;27404;52.398;9.646;2023-04-25T07:43:16;16.63;;;2.10;;
8159;SDS011;27404;52.398;9.646;2023-04-25T07:45:44;11.67;;;1.97;;
8159;SDS011;27404;52.398;9.646;2023-04-25T07:48:10;7.53;;;1.83;;
8159;SDS011;27404;52.398;9.646;2023-04-25T07:50:36;10.60;;;2.73;;
8159;SDS011;27404;52.398;9.646;2023-04-25T07:53:02;9.90;;;2.20;;
8159;SDS011;27404;52.398;9.646;2023-04-25T07:55:28;12.43;;;2.43;;
8159;SDS011;27404;52.398;9.646;2023-04-25T07:57:53;16.30;;;3.03;;
8159;SDS011;27404;52.398;9.646;2023-04-25T08:00:19;9.43;;;2.47;;
8159;SDS011;27404;52.398;9.646;2023-04-25T08:02:44;8.70;;;2.40;;
8159;SDS011;27404;52.398;9.646;2023-04-25T08:05:10;6.63;;;2.00;;
8159;SDS011;27404;52.398;9.646;2023-04-25T08:07:39;8.43;;;2.27;;
8159;SDS011;27404;52.398;9.646;2023-04-25T08:10:05;5.57;;;1.77;;
8159;SDS011;27404;52.398;9.646;2023-04-25T08:12:31;6.80;;;1.93;;
8159;SDS011;27404;52.398;9.646;2023-04-25T08:14:57;9.07;;;2.03;;
8159;SDS011;27404;52.398;9.646;2023-04-25T08:17:23;9.37;;;2.43;;
8159;SDS011;27404;52.398;9.646;2023-04-25T08:19:48;7.90;;;2.00;;
8159;SDS011;27404;52.398;9.646;2023-04-25T08:22:14;10.97;;;2.47;;
8159;SDS011;27404;52.398;9.646;2023-04-25T08:24:40;16.70;;;2.20;;
8159;SDS011;27404;52.398;9.646;2023-04-25T08:27:06;11.20;;;1.83;;
8159;SDS011;27404;52.398;9.646;2023-04-25T08:29:32;11.83;;;2.53;;
8159;SDS011;27404;52.398;9.646;2023-04-25T08:31:58;9.47;;;3.00;;
8159;SDS011;27404;52.398;9.646;2023-04-25T08:34:24;6.77;;;2.13;;
8159;SDS011;27404;52.398;9.646;2023-04-25T08:36:50;7.57;;;2.20;;
8159;SDS011;27404;52.398;9.646;2023-04-25T08:39:16;8.37;;;2.30;;
8159;SDS011;27404;52.398;9.646;2023-04-25T08:41:42;6.73;;;2.17;;
8159;SDS011;27404;52.398;9.646;2023-04-25T08:44:10;11.10;;;1.50;;
8159;SDS011;27404;52.398;9.646;2023-04-25T08:46:37;12.40;;;2.00;;
8159;SDS011;27404;52.398;9.646;2023-04-25T08:49:04;7.20;;;1.50;;
8159;SDS011;27404;52.398;9.646;2023-04-25T08:51:31;12.70;;;2.77;;
8159;SDS011;27404;52.398;9.646;2023-04-25T08:53:59;9.87;;;2.13;;
8159;SDS011;27404;52.398;9.646;2023-04-25T08:56:47;7.80;;;2.00;;
8159;SDS011;27404;52.398;9.646;2023-04-25T08:59:12;5.23;;;1.50;;
8159;SDS011;27404;52.398;9.646;2023-04-25T09:01:38;5.37;;;1.70;;
8159;SDS011;27404;52.398;9.646;2023-04-25T09:04:04;5.90;;;1.70;;
8159;SDS011;27404;52.398;9.646;2023-04-25T09:06:30;6.43;;;1.30;;
8159;SDS011;27404;52.398;9.646;2023-04-25T09:09:03;6.33;;;1.30;;
8159;SDS011;27404;52.398;9.646;2023-04-25T09:11:30;4.60;;;1.00;;
8159;SDS011;27404;52.398;9.646;2023-04-25T09:14:15;8.30;;;1.73;;
8159;SDS011;27404;52.398;9.646;2023-04-25T09:19:20;7.63;;;1.43;;
8159;SDS011;27404;52.398;9.646;2023-04-25T09:21:50;4.47;;;1.10;;
8159;SDS011;27404;52.398;9.646;2023-04-25T09:24:16;12.77;;;1.53;;
8159;SDS011;27404;52.398;9.646;2023-04-25T09:26:55;4.47;;;1.47;;
8159;SDS011;27404;52.398;9.646;2023-04-25T09:29:20;7.00;;;1.37;;
8159;SDS011;27404;52.398;9.646;2023-04-25T09:32:07;4.97;;;1.40;;
8159;SDS011;27404;52.398;9.646;2023-04-25T09:34:47;3.20;;;1.00;;
8159;SDS011;27404;52.398;9.646;2023-04-25T09:37:22;4.93;;;1.20;;
8159;SDS011;27404;52.398;9.646;2023-04-25T09:39:58;4.57;;;1.53;;
8159;SDS011;27404;52.398;9.646;2023-04-25T09:42:26;7.13;;;1.20;;
8159;SDS011;27404;52.398;9.646;2023-04-25T09:44:54;3.03;;;0.93;;
8159;SDS011;27404;52.398;9.646;2023-04-25T09:47:22;5.37;;;2.10;;
8159;SDS011;27404;52.398;9.646;2023-04-25T09:49:49;3.83;;;1.10;;
8159;SDS011;27404;52.398;9.646;2023-04-25T09:52:18;7.30;;;1.50;;
8159;SDS011;27404;52.398;9.646;2023-04-25T09:54:46;4.90;;;1.40;;
8159;SDS011;27404;52.398;9.646;2023-04-25T09:57:19;4.50;;;1.13;;
8159;SDS011;27404;52.398;9.646;2023-04-25T09:59:48;5.20;;;1.03;;
8159;SDS011;27404;52.398;9.646;2023-04-25T10:02:16;4.23;;;1.63;;
8159;SDS011;27404;52.398;9.646;2023-04-25T10:04:44;3.97;;;1.40;;
8159;SDS011;27404;52.398;9.646;2023-04-25T10:07:13;6.77;;;1.40;;
8159;SDS011;27404;52.398;9.646;2023-04-25T10:09:39;4.03;;;1.30;;
8159;SDS011;27404;52.398;9.646;2023-04-25T10:12:07;4.87;;;1.60;;
8159;SDS011;27404;52.398;9.646;2023-04-25T10:14:33;7.10;;;1.80;;
8159;SDS011;27404;52.398;9.646;2023-04-25T10:17:00;5.83;;;1.63;;
8159;SDS011;27404;52.398;9.646;2023-04-25T10:19:26;10.97;;;1.70;;
8159;SDS011;27404;52.398;9.646;2023-04-25T10:21:54;4.90;;;1.40;;
8159;SDS011;27404;52.398;9.646;2023-04-25T10:24:28;8.63;;;1.57;;
8159;SDS011;27404;52.398;9.646;2023-04-25T10:26:53;5.60;;;1.40;;
8159;SDS011;27404;52.398;9.646;2023-04-25T10:29:26;7.77;;;1.40;;
8159;SDS011;27404;52.398;9.646;2023-04-25T10:31:52;5.10;;;1.40;;
8159;SDS011;27404;52.398;9.646;2023-04-25T10:34:18;7.07;;;1.70;;
8159;SDS011;27404;52.398;9.646;2023-04-25T10:36:49;4.43;;;1.73;;
8159;SDS011;27404;52.398;9.646;2023-04-25T10:39:23;7.43;;;2.10;;
8159;SDS011;27404;52.398;9.646;2023-04-25T10:42:01;4.17;;;1.40;;
8159;SDS011;27404;52.398;9.646;2023-04-25T10:44:31;6.50;;;1.60;;
8159;SDS011;27404;52.398;9.646;2023-04-25T10:46:57;5.90;;;1.20;;
8159;SDS011;27404;52.398;9.646;2023-04-25T10:49:31;5.67;;;1.30;;
8159;SDS011;27404;52.398;9.646;2023-04-25T10:52:10;7.80;;;1.50;;
8159;SDS011;27404;52.398;9.646;2023-04-25T10:54:57;6.40;;;1.33;;
8159;SDS011;27404;52.398;9.646;2023-04-25T10:57:26;9.00;;;1.90;;
8159;SDS011;27404;52.398;9.646;2023-04-25T11:02:55;4.53;;;1.13;;
8159;SDS011;27404;52.398;9.646;2023-04-25T11:05:30;8.37;;;1.47;;
8159;SDS011;27404;52.398;9.646;2023-04-25T11:07:58;4.73;;;1.30;;
8159;SDS011;27404;52.398;9.646;2023-04-25T11:10:27;6.13;;;1.37;;
8159;SDS011;27404;52.398;9.646;2023-04-25T11:12:54;6.10;;;2.03;;
8159;SDS011;27404;52.398;9.646;2023-04-25T11:15:20;7.30;;;1.13;;
8159;SDS011;27404;52.398;9.646;2023-04-25T11:17:46;6.43;;;1.80;;
8159;SDS011;27404;52.398;9.646;2023-04-25T11:20:12;4.37;;;1.50;;
8159;SDS011;27404;52.398;9.646;2023-04-25T11:22:39;5.27;;;1.40;;
8159;SDS011;27404;52.398;9.646;2023-04-25T11:25:09;4.97;;;1.40;;
8159;SDS011;27404;52.398;9.646;2023-04-25T11:27:51;5.37;;;1.50;;
8159;SDS011;27404;52.398;9.646;2023-04-25T11:30:18;4.50;;;1.60;;
8159;SDS011;27404;52.398;9.646;2023-04-25T11:32:44;4.83;;;1.40;;
8159;SDS011;27404;52.398;9.646;2023-04-25T11:35:10;8.10;;;1.73;;
8159;SDS011;27404;52.398;9.646;2023-04-25T11:37:36;4.20;;;1.33;;
8159;SDS011;27404;52.398;9.646;2023-04-25T11:40:03;7.63;;;1.40;;
8159;SDS011;27404;52.398;9.646;2023-04-25T11:42:31;5.43;;;1.53;;
8159;SDS011;27404;52.398;9.646;2023-04-25T11:44:57;11.70;;;1.53;;
8159;SDS011;27404;52.398;9.646;2023-04-25T11:47:32;7.80;;;2.27;;
8159;SDS011;27404;52.398;9.646;2023-04-25T11:49:59;4.77;;;1.17;;
8159;SDS011;27404;52.398;9.646;2023-04-25T11:52:38;8.53;;;1.50;;
8159;SDS011;27404;52.398;9.646;2023-04-25T11:55:05;5.80;;;1.60;;
8159;SDS011;27404;52.398;9.646;2023-04-25T11:57:32;6.40;;;1.53;;
8159;SDS011;27404;52.398;9.646;2023-04-25T12:02:36;3.37;;;1.33;;
8159;SDS011;27404;52.398;9.646;2023-04-25T12:05:05;2.83;;;1.00;;
8159;SDS011;27404;52.398;9.646;2023-04-25T12:07:32;2.60;;;0.90;;
8159;SDS011;27404;52.398;9.646;2023-04-25T12:09:57;3.50;;;1.10;;
8159;SDS011;27404;52.398;9.646;2023-04-25T12:12:27;2.50;;;0.80;;
8159;SDS011;27404;52.398;9.646;2023-04-25T12:14:57;2.57;;;0.70;;
8159;SDS011;27404;52.398;9.646;2023-04-25T12:17:34;1.73;;;0.70;;
8159;SDS011;27404;52.398;9.646;2023-04-25T12:20:00;3.93;;;1.00;;
8159;SDS011;27404;52.398;9.646;2023-04-25T12:22:32;2.37;;;0.73;;
8159;SDS011;27404;52.398;9.646;2023-04-25T12:24:58;3.53;;;1.00;;
8159;SDS011;27404;52.398;9.646;2023-04-25T12:27:23;4.90;;;1.10;;
8159;SDS011;27404;52.398;9.646;2023-04-25T12:29:52;1.93;;;0.90;;
8159;SDS011;27404;52.398;9.646;2023-04-25T12:32:18;2.30;;;0.77;;
8159;SDS011;27404;52.398;9.646;2023-04-25T12:34:44;2.43;;;0.97;;
8159;SDS011;27404;52.398;9.646;2023-04-25T12:37:10;2.87;;;0.73;;
8159;SDS011;27404;52.398;9.646;2023-04-25T12:39:36;2.43;;;0.53;;
8159;SDS011;27404;52.398;9.646;2023-04-25T12:42:01;3.93;;;0.60;;
8159;SDS011;27404;52.398;9.646;2023-04-25T12:44:28;2.57;;;0.70;;
8159;SDS011;27404;52.398;9.646;2023-04-25T12:46:53;2.80;;;0.60;;
8159;SDS011;27404;52.398;9.646;2023-04-25T12:49:19;1.77;;;0.50;;
8159;SDS011;27404;52.398;9.646;2023-04-25T12:51:45;1.47;;;0.50;;
8159;SDS011;27404;52.398;9.646;2023-04-25T12:54:11;1.87;;;0.77;;
8159;SDS011;27404;52.398;9.646;2023-04-25T12:56:37;3.70;;;1.17;;
8159;SDS011;27404;52.398;9.646;2023-04-25T12:59:03;3.07;;;0.80;;
8159;SDS011;27404;52.398;9.646;2023-04-25T13:01:28;5.17;;;1.07;;
8159;SDS011;27404;52.398;9.646;2023-04-25T13:03:54;2.50;;;1.07;;
8159;SDS011;27404;52.398;9.646;2023-04-25T13:06:20;3.47;;;0.90;;
8159;SDS011;27404;52.398;9.646;2023-04-25T13:08:47;4.30;;;1.40;;
8159;SDS011;27404;52.398;9.646;2023-04-25T13:11:13;3.40;;;1.10;;
8159;SDS011;27404;52.398;9.646;2023-04-25T13:13:39;3.57;;;0.90;;
8159;SDS011;27404;52.398;9.646;2023-04-25T13:16:06;4.03;;;0.93;;
8159;SDS011;27404;52.398;9.646;2023-04-25T13:18:32;2.43;;;1.10;;
8159;SDS011;27404;52.398;9.646;2023-04-25T13:20:58;3.90;;;1.20;;
8159;SDS011;27404;52.398;9.646;2023-04-25T13:23:27;5.17;;;1.80;;
8159;SDS011;27404;52.398;9.646;2023-04-25T13:25:54;5.23;;;1.50;;
8159;SDS011;27404;52.398;9.646;2023-04-25T13:28:20;2.83;;;1.20;;
8159;SDS011;27404;52.398;9.646;2023-04-25T13:30:46;3.47;;;1.10;;
8159;SDS011;27404;52.398;9.646;2023-04-25T13:33:13;6.90;;;1.50;;
8159;SDS011;27404;52.398;9.646;2023-04-25T13:35:39;4.67;;;1.30;;
8159;SDS011;27404;52.398;9.646;2023-04-25T13:38:05;6.10;;;1.50;;
8159;SDS011;27404;52.398;9.646;2023-04-25T13:40:31;14.10;;;2.20;;
8159;SDS011;27404;52.398;9.646;2023-04-25T13:42:57;4.27;;;1.20;;
8159;SDS011;27404;52.398;9.646;2023-04-25T13:45:22;4.73;;;1.30;;
8159;SDS011;27404;52.398;9.646;2023-04-25T13:47:48;6.67;;;1.87;;
8159;SDS011;27404;52.398;9.646;2023-04-25T13:50:13;3.23;;;1.30;;
8159;SDS011;27404;52.398;9.646;2023-04-25T13:52:40;8.10;;;1.40;;
8159;SDS011;27404;52.398;9.646;2023-04-25T13:55:06;3.90;;;1.03;;
8159;SDS011;27404;52.398;9.646;2023-04-25T13:57:32;4.37;;;1.20;;
8159;SDS011;27404;52.398;9.646;2023-04-25T13:59:58;2.37;;;1.00;;
8159;SDS011;27404;52.398;9.646;2023-04-25T14:02:24;4.67;;;1.00;;
8159;SDS011;27404;52.398;9.646;2023-04-25T14:04:50;4.07;;;1.20;;
8159;SDS011;27404;52.398;9.646;2023-04-25T14:07:16;4.07;;;1.10;;
8159;SDS011;27404;52.398;9.646;2023-04-25T14:09:42;1.77;;;1.00;;
8159;SDS011;27404;52.398;9.646;2023-04-25T14:12:07;6.10;;;1.03;;
8159;SDS011;27404;52.398;9.646;2023-04-25T14:14:32;4.23;;;1.23;;
8159;SDS011;27404;52.398;9.646;2023-04-25T14:16:58;3.43;;;1.10;;
8159;SDS011;27404;52.398;9.646;2023-04-25T14:19:24;5.83;;;1.20;;
8159;SDS011;27404;52.398;9.646;2023-04-25T14:21:49;4.37;;;1.30;;
8159;SDS011;27404;52.398;9.646;2023-04-25T14:24:15;3.00;;;1.20;;
8159;SDS011;27404;52.398;9.646;2023-04-25T14:26:41;4.77;;;1.53;;
8159;SDS011;27404;52.398;9.646;2023-04-25T14:29:07;3.80;;;1.33;;
8159;SDS011;27404;52.398;9.646;2023-04-25T14:31:36;6.97;;;1.30;;
8159;SDS011;27404;52.398;9.646;2023-04-25T14:34:03;4.33;;;2.20;;
8159;SDS011;27404;52.398;9.646;2023-04-25T14:36:29;4.03;;;1.43;;
8159;SDS011;27404;52.398;9.646;2023-04-25T14:38:55;4.83;;;1.33;;
8159;SDS011;27404;52.398;9.646;2023-04-25T14:41:21;1.83;;;0.87;;
8159;SDS011;27404;52.398;9.646;2023-04-25T14:43:48;3.70;;;1.00;;
8159;SDS011;27404;52.398;9.646;2023-04-25T14:46:13;5.00;;;1.10;;
8159;SDS011;27404;52.398;9.646;2023-04-25T14:48:39;3.27;;;1.10;;
8159;SDS011;27404;52.398;9.646;2023-04-25T14:51:05;6.17;;;1.13;;
8159;SDS011;27404;52.398;9.646;2023-04-25T14:53:31;5.00;;;1.37;;
8159;SDS011;27404;52.398;9.646;2023-04-25T14:55:57;4.93;;;1.00;;
8159;SDS011;27404;52.398;9.646;2023-04-25T14:58:22;6.70;;;1.40;;
8159;SDS011;27404;52.398;9.646;2023-04-25T15:00:47;5.47;;;1.10;;